createdAt,value
2023-02-14T00:00:58.403Z,6.57
2023-02-14T00:03:25.115Z,6.28
2023-02-14T00:05:51.905Z,6.18
2023-02-14T00:08:18.379Z,5.18
2023-02-14T00:10:45.210Z,5.47
2023-02-14T00:13:11.594Z,5.78
2023-02-14T00:15:38.207Z,6.10
2023-02-14T00:18:06.169Z,6.43
2023-02-14T00:20:32.575Z,6.43
2023-02-14T00:23:01.215Z,5.93
2023-02-14T00:25:27.614Z,5.82
2023-02-14T00:27:55.938Z,6.10
2023-02-14T00:30:22.657Z,6.25
2023-02-14T00:32:49.876Z,5.85
2023-02-14T00:35:16.340Z,6.60
2023-02-14T00:37:46.827Z,6.82
2023-02-14T00:40:13.726Z,6.45
2023-02-14T00:42:40.391Z,6.47
2023-02-14T00:45:07.080Z,6.93
2023-02-14T00:47:34.116Z,7.00
2023-02-14T00:50:02.746Z,6.00
2023-02-14T00:52:30.509Z,6.57
2023-02-14T00:54:56.839Z,5.85
2023-02-14T00:57:26.688Z,6.18
2023-02-14T00:59:53.113Z,6.90
2023-02-14T01:02:29.071Z,7.05
2023-02-14T01:04:55.512Z,7.50
2023-02-14T01:07:22.656Z,7.53
2023-02-14T01:09:49.104Z,8.38
2023-02-14T01:12:16.035Z,8.93
2023-02-14T01:14:42.412Z,10.15
2023-02-14T01:17:34.068Z,9.27
2023-02-14T01:20:00.607Z,8.05
2023-02-14T01:23:24.046Z,7.38
2023-02-14T01:26:47.359Z,6.75
2023-02-14T01:29:13.739Z,8.27
2023-02-14T01:31:40.671Z,8.20
2023-02-14T01:34:07.301Z,8.07
2023-02-14T01:36:37.574Z,7.85
2023-02-14T01:39:12.329Z,7.93
2023-02-14T01:41:41.279Z,9.18
2023-02-14T01:44:36.629Z,8.27
2023-02-14T01:47:07.798Z,9.30
2023-02-14T01:49:38.785Z,8.07
2023-02-14T01:52:12.967Z,9.05
2023-02-14T01:54:44.592Z,9.57
2023-02-14T01:57:15.406Z,9.50
2023-02-14T01:59:51.107Z,9.38
2023-02-14T02:02:23.713Z,8.77
2023-02-14T02:04:55.797Z,9.57
2023-02-14T02:07:26.826Z,9.20
2023-02-14T02:10:00.749Z,9.30
2023-02-14T02:12:29.784Z,9.52
2023-02-14T02:15:00.321Z,9.50
2023-02-14T02:17:45.305Z,9.00
2023-02-14T02:20:31.933Z,9.80
2023-02-14T02:23:21.779Z,8.52
2023-02-14T02:26:03.618Z,8.95
2023-02-14T02:29:07.913Z,8.80
2023-02-14T02:31:54.864Z,9.02
2023-02-14T02:34:59.370Z,8.13
2023-02-14T02:37:44.786Z,7.97
2023-02-14T02:43:07.391Z,8.35
2023-02-14T02:46:08.485Z,9.98
2023-02-14T02:48:45.287Z,9.05
2023-02-14T02:51:40.881Z,9.70
2023-02-14T02:54:14.485Z,9.35
2023-02-14T02:56:51.564Z,10.77
2023-02-14T02:59:30.322Z,10.45
2023-02-14T03:02:12.793Z,10.20
2023-02-14T03:04:56.247Z,10.75
2023-02-14T03:07:39.699Z,8.82
2023-02-14T03:10:19.154Z,9.95
2023-02-14T03:12:54.964Z,9.48
2023-02-14T03:15:34.193Z,10.48
2023-02-14T03:18:18.936Z,9.10
2023-02-14T03:20:45.444Z,9.30
2023-02-14T03:23:24.295Z,10.65
2023-02-14T03:26:15.328Z,11.52
2023-02-14T03:28:44.937Z,10.32
2023-02-14T03:31:28.152Z,10.77
2023-02-14T03:34:06.951Z,10.90
2023-02-14T03:36:50.896Z,11.35
2023-02-14T03:39:33.301Z,11.10
2023-02-14T03:42:22.662Z,11.80
2023-02-14T03:44:53.015Z,10.38
2023-02-14T03:47:24.215Z,10.65
2023-02-14T03:49:56.472Z,11.80
2023-02-14T03:52:27.412Z,10.77
2023-02-14T03:54:57.234Z,10.38
2023-02-14T03:57:46.097Z,12.05
2023-02-14T04:00:13.825Z,11.05
2023-02-14T04:02:46.612Z,10.02
2023-02-14T04:05:19.486Z,10.93
2023-02-14T04:07:53.273Z,12.63
2023-02-14T04:10:21.227Z,11.48
2023-02-14T04:12:48.478Z,10.55
2023-02-14T04:15:15.916Z,10.77
2023-02-14T04:18:01.023Z,10.77
2023-02-14T04:20:28.419Z,11.18
2023-02-14T04:22:55.292Z,12.20
2023-02-14T04:25:22.778Z,11.68
2023-02-14T04:27:49.196Z,12.43
2023-02-14T04:30:17.963Z,12.10
2023-02-14T04:32:44.719Z,11.93
2023-02-14T04:35:11.376Z,11.82
2023-02-14T04:37:37.982Z,12.13
2023-02-14T04:40:05.076Z,13.18
2023-02-14T04:42:31.961Z,12.75
2023-02-14T04:44:58.810Z,12.77
2023-02-14T04:47:25.658Z,13.48
2023-02-14T04:49:52.429Z,14.02
2023-02-14T04:52:19.227Z,14.70
2023-02-14T04:54:45.667Z,14.77
2023-02-14T04:57:12.076Z,14.55
2023-02-14T04:59:38.651Z,14.10
2023-02-14T05:02:05.129Z,14.32
2023-02-14T05:04:31.757Z,15.20
2023-02-14T05:06:58.149Z,14.05
2023-02-14T05:09:25.800Z,15.25
2023-02-14T05:11:52.221Z,13.75
2023-02-14T05:14:19.482Z,14.25
2023-02-14T05:16:46.242Z,14.20
2023-02-14T05:19:13.337Z,14.32
2023-02-14T05:21:40.138Z,15.05
2023-02-14T05:24:06.810Z,14.32
2023-02-14T05:26:33.683Z,13.98
2023-02-14T05:29:00.401Z,14.07
2023-02-14T05:31:27.077Z,13.57
2023-02-14T05:33:53.550Z,14.27
2023-02-14T05:36:20.205Z,14.05
2023-02-14T05:38:46.621Z,14.00
2023-02-14T05:41:13.705Z,14.02
2023-02-14T05:43:40.113Z,14.43
2023-02-14T05:46:06.777Z,14.77
2023-02-14T05:48:33.956Z,14.38
2023-02-14T05:51:05.636Z,14.00
2023-02-14T05:53:33.412Z,14.98
2023-02-14T05:56:00.175Z,16.05
2023-02-14T05:58:27.115Z,13.93
2023-02-14T06:00:53.725Z,14.98
2023-02-14T06:03:20.257Z,15.20
2023-02-14T06:05:46.766Z,14.52
2023-02-14T06:08:13.230Z,15.88
2023-02-14T06:10:39.651Z,15.05
2023-02-14T06:13:10.583Z,13.88
2023-02-14T06:15:38.545Z,15.77
2023-02-14T06:18:05.499Z,14.38
2023-02-14T06:20:32.025Z,15.27
2023-02-14T06:22:59.539Z,17.02
2023-02-14T06:25:26.178Z,14.43
2023-02-14T06:27:56.893Z,14.00
2023-02-14T06:30:23.910Z,15.20
2023-02-14T06:32:50.541Z,13.73
2023-02-14T06:35:17.623Z,14.90
2023-02-14T06:37:45.177Z,15.52
2023-02-14T06:40:12.581Z,16.63
2023-02-14T06:42:39.069Z,16.65
2023-02-14T06:45:06.733Z,16.77
2023-02-14T06:47:34.958Z,18.33
2023-02-14T06:50:04.505Z,16.85
2023-02-14T06:52:32.545Z,16.55
2023-02-14T06:54:59.084Z,16.85
2023-02-14T06:57:25.606Z,16.73
2023-02-14T06:59:52.093Z,19.23
2023-02-14T07:02:18.678Z,17.65
2023-02-14T07:04:45.395Z,16.48
2023-02-14T07:07:11.992Z,15.27
2023-02-14T07:09:38.711Z,15.77
2023-02-14T07:12:06.096Z,15.60
2023-02-14T07:14:32.563Z,15.80
2023-02-14T07:16:59.109Z,15.60
2023-02-14T07:19:25.641Z,15.23
2023-02-14T07:21:52.071Z,15.93
2023-02-14T07:24:18.939Z,16.20
2023-02-14T07:26:45.591Z,13.73
2023-02-14T07:29:12.170Z,14.73
2023-02-14T07:31:38.650Z,16.95
2023-02-14T07:34:05.294Z,14.45
2023-02-14T07:36:31.735Z,15.55
2023-02-14T07:38:58.421Z,15.65
2023-02-14T07:41:25.088Z,15.68
2023-02-14T07:43:51.747Z,15.10
2023-02-14T07:46:18.776Z,15.63
2023-02-14T07:48:45.298Z,15.35
2023-02-14T07:51:11.990Z,14.38
2023-02-14T07:53:38.367Z,14.27
2023-02-14T07:56:05.174Z,13.55
2023-02-14T07:58:31.670Z,15.93
2023-02-14T08:00:58.732Z,17.40
2023-02-14T08:03:25.237Z,15.88
2023-02-14T08:05:57.680Z,15.55
2023-02-14T08:08:26.526Z,14.45
2023-02-14T08:10:53.248Z,15.15
2023-02-14T08:13:20.427Z,15.40
2023-02-14T08:16:05.200Z,15.60
2023-02-14T08:18:39.766Z,14.82
2023-02-14T08:21:09.285Z,15.10
2023-02-14T08:23:37.383Z,16.05
2023-02-14T08:26:04.381Z,15.20
2023-02-14T08:28:33.544Z,14.65
2023-02-14T08:31:00.908Z,15.15
2023-02-14T08:33:28.305Z,14.70
2023-02-14T08:35:54.888Z,16.70
2023-02-14T08:38:21.439Z,14.68
2023-02-14T08:40:48.372Z,15.10
2023-02-14T08:43:14.820Z,14.93
2023-02-14T08:45:41.859Z,15.77
2023-02-14T08:48:10.856Z,16.60
2023-02-14T08:50:38.266Z,15.15
2023-02-14T08:53:13.035Z,15.07
2023-02-14T08:55:41.514Z,16.13
2023-02-14T08:58:09.280Z,14.68
2023-02-14T09:00:36.378Z,13.27
2023-02-14T09:03:02.843Z,14.65
2023-02-14T09:05:29.869Z,14.45
2023-02-14T09:07:56.612Z,15.02
2023-02-14T09:10:24.998Z,15.88
2023-02-14T09:12:51.931Z,15.00
2023-02-14T09:15:18.833Z,15.45
2023-02-14T09:17:45.531Z,14.82
2023-02-14T09:20:13.210Z,13.88
2023-02-14T09:22:39.965Z,13.38
2023-02-14T09:25:06.681Z,13.73
2023-02-14T09:27:33.671Z,14.15
2023-02-14T09:30:00.314Z,14.52
2023-02-14T09:32:29.018Z,13.43
2023-02-14T09:35:14.299Z,14.10
2023-02-14T09:37:40.680Z,13.63
2023-02-14T09:40:07.857Z,13.40
2023-02-14T09:42:42.794Z,13.98
2023-02-14T09:45:25.699Z,13.13
2023-02-14T09:48:31.673Z,13.20
2023-02-14T09:51:07.087Z,13.50
2023-02-14T09:53:40.585Z,13.57
2023-02-14T09:56:50.586Z,12.90
2023-02-14T09:59:28.256Z,12.23
2023-02-14T10:02:09.425Z,12.38
2023-02-14T10:04:42.356Z,11.90
2023-02-14T10:07:17.969Z,12.32
2023-02-14T10:10:03.776Z,12.57
2023-02-14T10:12:37.039Z,12.50
2023-02-14T10:15:26.189Z,12.35
2023-02-14T10:18:01.092Z,12.40
2023-02-14T10:20:30.565Z,12.32
2023-02-14T10:23:05.170Z,11.15
2023-02-14T10:25:48.803Z,12.32
2023-02-14T10:28:24.751Z,12.95
2023-02-14T10:31:26.803Z,11.05
2023-02-14T10:34:04.395Z,12.70
2023-02-14T10:36:43.123Z,12.18
2023-02-14T10:39:28.347Z,12.95
2023-02-14T10:42:23.651Z,11.57
2023-02-14T10:45:17.753Z,11.95
2023-02-14T10:48:19.521Z,13.60
2023-02-14T10:51:10.558Z,12.70
2023-02-14T10:53:49.319Z,11.32
2023-02-14T10:56:23.449Z,15.95
2023-02-14T10:58:52.428Z,13.13
2023-02-14T11:01:20.183Z,11.95
2023-02-14T11:04:11.574Z,12.10
2023-02-14T11:06:38.241Z,13.90
2023-02-14T11:09:05.184Z,11.35
2023-02-14T11:11:38.340Z,11.68
2023-02-14T11:14:24.775Z,12.32
2023-02-14T11:16:52.794Z,10.82
2023-02-14T11:19:22.752Z,12.02
2023-02-14T11:21:50.940Z,12.45
2023-02-14T11:24:32.727Z,11.07
2023-02-14T11:27:03.053Z,11.25
2023-02-14T11:29:41.528Z,11.15
2023-02-14T11:32:10.780Z,11.65
2023-02-14T11:34:41.071Z,11.77
2023-02-14T11:37:23.489Z,11.70
2023-02-14T11:39:51.560Z,11.40
2023-02-14T11:42:47.728Z,12.20
2023-02-14T11:45:31.983Z,11.60
2023-02-14T11:48:20.001Z,11.32
2023-02-14T11:51:03.265Z,11.13
2023-02-14T11:53:53.366Z,10.75
2023-02-14T11:56:21.655Z,11.30
2023-02-14T11:59:03.378Z,11.75
2023-02-14T12:01:35.918Z,10.88
2023-02-14T12:04:14.052Z,10.65
2023-02-14T12:06:40.830Z,10.35
2023-02-14T12:09:23.625Z,10.52
2023-02-14T12:11:59.594Z,11.50
2023-02-14T12:14:35.348Z,10.32
2023-02-14T12:17:11.411Z,9.98
2023-02-14T12:19:44.821Z,9.48
2023-02-14T12:22:18.850Z,11.13
2023-02-14T12:24:54.634Z,9.90
2023-02-14T12:27:24.675Z,11.23
2023-02-14T12:30:14.066Z,11.18
2023-02-14T12:32:52.641Z,10.38
2023-02-14T12:35:50.022Z,11.00
2023-02-14T12:38:34.800Z,10.35
2023-02-14T12:41:30.594Z,10.48
2023-02-14T12:44:03.421Z,11.88
2023-02-14T12:47:14.657Z,10.93
2023-02-14T12:49:54.834Z,11.35
2023-02-14T12:52:30.591Z,11.35
2023-02-14T12:55:25.194Z,10.32
2023-02-14T12:57:58.924Z,10.05
2023-02-14T13:00:28.153Z,10.30
2023-02-14T13:03:16.045Z,11.52
2023-02-14T13:05:57.749Z,11.30
2023-02-14T13:08:31.735Z,10.38
2023-02-14T13:11:29.931Z,9.90
2023-02-14T13:14:29.668Z,10.60
2023-02-14T13:16:58.886Z,9.50
2023-02-14T13:20:08.963Z,10.40
2023-02-14T13:22:37.123Z,10.45
2023-02-14T13:25:13.117Z,10.15
2023-02-14T13:27:41.257Z,10.43
2023-02-14T13:30:24.976Z,10.80
2023-02-14T13:32:54.782Z,10.85
2023-02-14T13:35:23.823Z,9.70
2023-02-14T13:38:03.562Z,10.63
2023-02-14T13:40:32.069Z,10.52
2023-02-14T13:43:00.646Z,10.13
2023-02-14T13:45:30.583Z,10.55
2023-02-14T13:48:21.132Z,10.32
2023-02-14T13:50:51.057Z,9.75
2023-02-14T13:53:39.503Z,10.15
2023-02-14T13:56:11.953Z,10.32
2023-02-14T13:58:59.890Z,9.98
2023-02-14T14:01:37.801Z,9.15
2023-02-14T14:04:26.623Z,10.80
2023-02-14T14:07:05.816Z,10.20
2023-02-14T14:09:57.217Z,9.55
2023-02-14T14:12:37.555Z,9.80
2023-02-14T14:15:06.845Z,10.65
2023-02-14T14:17:41.330Z,10.68
2023-02-14T14:20:20.114Z,10.75
2023-02-14T14:23:44.809Z,10.63
2023-02-14T14:26:35.198Z,10.38
2023-02-14T14:29:01.742Z,10.30
2023-02-14T14:31:29.633Z,12.07
2023-02-14T14:34:02.258Z,11.15
2023-02-14T14:36:29.128Z,10.52
2023-02-14T14:38:55.540Z,10.55
2023-02-14T14:41:31.397Z,10.77
2023-02-14T14:43:59.716Z,11.55
2023-02-14T14:46:26.300Z,10.85
2023-02-14T14:48:56.078Z,11.15
2023-02-14T14:51:28.509Z,10.55
2023-02-14T14:54:27.542Z,11.63
2023-02-14T14:57:04.389Z,10.80
2023-02-14T14:59:37.226Z,10.45
2023-02-14T15:02:27.469Z,11.25
2023-02-14T15:04:53.935Z,10.75
2023-02-14T15:07:30.459Z,11.68
2023-02-14T15:09:56.928Z,12.25
2023-02-14T15:12:44.036Z,11.63
2023-02-14T15:15:13.483Z,12.75
2023-02-14T15:17:41.872Z,12.63
2023-02-14T15:20:19.045Z,12.07
2023-02-14T15:22:48.330Z,11.90
2023-02-14T15:25:28.006Z,11.20
2023-02-14T15:27:55.410Z,12.15
2023-02-14T15:30:31.680Z,11.90
2023-02-14T15:32:58.820Z,11.07
2023-02-14T15:35:29.027Z,11.23
2023-02-14T15:37:57.815Z,11.65
2023-02-14T15:40:27.279Z,12.07
2023-02-14T15:42:56.607Z,11.45
2023-02-14T15:45:28.818Z,11.70
2023-02-14T15:47:59.195Z,11.02
2023-02-14T15:50:30.334Z,11.93
2023-02-14T15:53:17.221Z,11.73
2023-02-14T15:55:44.575Z,12.57
2023-02-14T15:58:32.794Z,12.27
2023-02-14T16:01:00.101Z,11.77
2023-02-14T16:03:31.128Z,12.75
2023-02-14T16:05:57.513Z,11.95
2023-02-14T16:08:34.579Z,12.48
2023-02-14T16:11:15.760Z,12.65
2023-02-14T16:13:45.151Z,11.18
2023-02-14T16:16:15.523Z,12.35
2023-02-14T16:18:42.694Z,12.23
2023-02-14T16:21:18.036Z,12.75
2023-02-14T16:24:07.550Z,11.65
2023-02-14T16:26:35.934Z,11.18
2023-02-14T16:29:04.017Z,13.05
2023-02-14T16:31:30.984Z,12.30
2023-02-14T16:33:58.131Z,12.70
2023-02-14T16:36:32.773Z,13.40
2023-02-14T16:39:04.877Z,12.20
2023-02-14T16:41:33.803Z,13.65
2023-02-14T16:44:00.526Z,13.10
2023-02-14T16:46:32.507Z,12.05
2023-02-14T16:48:59.719Z,12.77
2023-02-14T16:51:29.726Z,13.48
2023-02-14T16:53:59.253Z,12.38
2023-02-14T16:56:44.359Z,14.07
2023-02-14T16:59:10.871Z,12.95
2023-02-14T17:01:37.589Z,12.98
2023-02-14T17:04:04.720Z,15.02
2023-02-14T17:06:33.925Z,13.38
2023-02-14T17:09:05.748Z,12.23
2023-02-14T17:11:36.725Z,14.45
2023-02-14T17:14:03.354Z,13.52
2023-02-14T17:16:31.481Z,14.25
2023-02-14T17:18:58.527Z,13.50
2023-02-14T17:21:25.149Z,14.32
2023-02-14T17:23:51.729Z,14.48
2023-02-14T17:26:18.712Z,14.13
2023-02-14T17:28:46.452Z,13.85
2023-02-14T17:31:13.599Z,26.42
2023-02-14T17:33:40.454Z,26.88
2023-02-14T17:36:11.862Z,16.58
2023-02-14T17:38:40.455Z,17.45
2023-02-14T17:41:11.925Z,16.27
2023-02-14T17:43:38.517Z,14.85
2023-02-14T17:46:05.496Z,14.50
2023-02-14T17:48:32.391Z,14.43
2023-02-14T17:51:06.494Z,15.15
2023-02-14T17:53:33.993Z,15.83
2023-02-14T17:56:12.260Z,14.73
2023-02-14T17:58:39.052Z,15.13
2023-02-14T18:01:08.145Z,15.23
2023-02-14T18:03:35.543Z,17.70
2023-02-14T18:06:02.860Z,14.85
2023-02-14T18:08:32.021Z,15.35
2023-02-14T18:10:58.689Z,16.52
2023-02-14T18:13:26.143Z,14.10
2023-02-14T18:15:53.175Z,14.80
2023-02-14T18:18:20.360Z,15.18
2023-02-14T18:20:58.490Z,14.70
2023-02-14T18:23:25.492Z,15.45
2023-02-14T18:25:55.577Z,14.82
2023-02-14T18:28:23.865Z,14.85
2023-02-14T18:30:50.842Z,18.15
2023-02-14T18:33:18.124Z,15.05
2023-02-14T18:35:45.217Z,16.85
2023-02-14T18:38:12.477Z,16.70
2023-02-14T18:40:40.058Z,16.38
2023-02-14T18:43:06.955Z,16.60
2023-02-14T18:45:38.109Z,16.38
2023-02-14T18:48:06.003Z,15.63
2023-02-14T18:50:33.510Z,15.45
2023-02-14T18:53:00.210Z,21.20
2023-02-14T18:55:27.247Z,18.60
2023-02-14T18:57:54.041Z,17.42
2023-02-14T19:00:21.739Z,31.55
2023-02-14T19:02:48.543Z,18.73
2023-02-14T19:05:15.216Z,17.77
2023-02-14T19:07:41.829Z,15.10
2023-02-14T19:10:10.633Z,16.00
2023-02-14T19:12:37.065Z,17.20
2023-02-14T19:15:03.962Z,16.95
2023-02-14T19:17:30.482Z,17.20
2023-02-14T19:19:57.290Z,14.50
2023-02-14T19:22:23.885Z,16.13
2023-02-14T19:24:54.057Z,16.90
2023-02-14T19:27:21.496Z,17.20
2023-02-14T19:29:48.426Z,16.75
2023-02-14T19:32:14.918Z,16.13
2023-02-14T19:34:41.808Z,17.70
2023-02-14T19:37:08.327Z,17.05
2023-02-14T19:39:35.162Z,16.38
2023-02-14T19:42:01.935Z,19.88
2023-02-14T19:44:30.475Z,17.55
2023-02-14T19:46:59.873Z,19.00
2023-02-14T19:49:28.807Z,19.13
2023-02-14T19:51:56.368Z,18.80
2023-02-14T19:54:25.825Z,18.27
2023-02-14T19:56:53.419Z,16.55
2023-02-14T19:59:21.689Z,19.33
2023-02-14T20:01:53.760Z,17.02
2023-02-14T20:04:26.632Z,19.15
2023-02-14T20:06:53.801Z,17.10
2023-02-14T20:09:21.829Z,15.73
2023-02-14T20:11:51.430Z,15.85
2023-02-14T20:14:30.514Z,19.15
2023-02-14T20:16:59.032Z,16.98
2023-02-14T20:19:29.224Z,19.20
2023-02-14T20:21:56.139Z,17.30
2023-02-14T20:24:31.080Z,17.85
2023-02-14T20:26:58.120Z,18.17
2023-02-14T20:29:25.345Z,18.52
2023-02-14T20:31:54.474Z,18.73
2023-02-14T20:34:21.594Z,17.77
2023-02-14T20:36:56.351Z,17.60
2023-02-14T20:39:35.800Z,18.15
2023-02-14T20:42:03.834Z,19.55
2023-02-14T20:44:30.753Z,17.60
2023-02-14T20:46:57.992Z,19.65
2023-02-14T20:49:26.361Z,18.00
2023-02-14T20:51:53.545Z,19.50
2023-02-14T20:54:23.118Z,19.33
2023-02-14T20:56:51.019Z,19.02
2023-02-14T20:59:19.338Z,18.95
2023-02-14T21:01:45.888Z,19.73
2023-02-14T21:04:14.448Z,18.73
2023-02-14T21:06:41.041Z,21.08
2023-02-14T21:09:08.334Z,19.02
2023-02-14T21:11:34.821Z,20.80
2023-02-14T21:14:01.959Z,18.65
2023-02-14T21:16:30.120Z,18.65
2023-02-14T21:19:01.325Z,19.08
2023-02-14T21:21:33.663Z,19.38
2023-02-14T21:24:01.946Z,17.70
2023-02-14T21:26:28.929Z,18.45
2023-02-14T21:28:55.500Z,19.98
2023-02-14T21:31:23.341Z,17.77
2023-02-14T21:33:57.546Z,19.50
2023-02-14T21:36:26.098Z,20.35
2023-02-14T21:38:55.348Z,20.60
2023-02-14T21:41:23.973Z,19.60
2023-02-14T21:43:52.919Z,19.15
2023-02-14T21:46:27.052Z,18.75
2023-02-14T21:49:14.293Z,17.67
2023-02-14T21:51:40.991Z,19.88
2023-02-14T21:54:08.514Z,18.13
2023-02-14T21:56:36.831Z,17.55
2023-02-14T21:59:03.769Z,17.70
2023-02-14T22:01:35.667Z,18.95
2023-02-14T22:04:04.592Z,20.15
2023-02-14T22:06:31.918Z,18.55
2023-02-14T22:09:00.547Z,17.75
2023-02-14T22:11:28.961Z,18.80
2023-02-14T22:14:00.237Z,19.48
2023-02-14T22:16:27.961Z,19.13
2023-02-14T22:18:54.945Z,17.95
2023-02-14T22:21:24.113Z,18.45
2023-02-14T22:23:51.320Z,16.50
2023-02-14T22:26:26.673Z,17.33
2023-02-14T22:28:59.123Z,16.85
2023-02-14T22:31:29.230Z,18.13
2023-02-14T22:33:55.832Z,16.75
2023-02-14T22:36:22.870Z,17.95
2023-02-14T22:38:49.340Z,19.20
2023-02-14T22:41:21.475Z,17.02
2023-02-14T22:43:47.955Z,18.02
2023-02-14T22:46:22.777Z,16.58
2023-02-14T22:48:50.141Z,17.63
2023-02-14T22:51:27.223Z,17.05
2023-02-14T22:53:56.390Z,16.33
2023-02-14T22:56:26.916Z,16.73
2023-02-14T22:58:59.092Z,16.60
2023-02-14T23:01:25.980Z,17.15
2023-02-14T23:03:54.427Z,18.27
2023-02-14T23:06:21.019Z,16.33
2023-02-14T23:08:48.032Z,16.42
2023-02-14T23:11:17.739Z,17.38
2023-02-14T23:14:03.521Z,18.63
2023-02-14T23:16:49.978Z,17.67
2023-02-14T23:19:38.975Z,16.58
2023-02-14T23:22:08.554Z,16.90
2023-02-14T23:24:35.292Z,16.85
2023-02-14T23:27:02.830Z,17.38
2023-02-14T23:29:29.972Z,17.70
2023-02-14T23:31:57.382Z,18.30
2023-02-14T23:34:28.503Z,19.48
2023-02-14T23:36:55.302Z,18.02
2023-02-14T23:39:21.997Z,17.75
2023-02-14T23:41:48.504Z,18.40
2023-02-14T23:44:20.318Z,16.90
2023-02-14T23:46:51.538Z,16.98
2023-02-14T23:49:18.577Z,18.60
2023-02-14T23:51:46.955Z,18.75
2023-02-14T23:54:14.043Z,16.70
2023-02-14T23:56:41.398Z,17.85
2023-02-14T23:59:08.787Z,16.52
